createdAt,value
2017-08-15T00:00:23.286Z,4.30
2017-08-15T00:02:50.885Z,4.23
2017-08-15T00:05:18.473Z,4.23
2017-08-15T00:07:46.053Z,4.57
2017-08-15T00:10:13.651Z,4.17
2017-08-15T00:12:41.211Z,4.60
2017-08-15T00:15:09.047Z,3.60
2017-08-15T00:17:36.623Z,5.00
2017-08-15T00:20:04.186Z,5.00
2017-08-15T00:22:31.772Z,5.23
2017-08-15T00:24:59.366Z,3.73
2017-08-15T00:27:26.974Z,4.10
2017-08-15T00:29:54.547Z,5.83
2017-08-15T00:32:22.167Z,6.83
2017-08-15T00:34:49.733Z,3.63
2017-08-15T00:37:17.320Z,3.80
2017-08-15T00:39:44.889Z,4.53
2017-08-15T00:42:12.765Z,4.10
2017-08-15T00:44:41.119Z,4.63
2017-08-15T00:47:08.696Z,3.93
2017-08-15T00:49:36.295Z,4.00
2017-08-15T00:52:03.887Z,3.70
2017-08-15T00:54:31.481Z,4.30
2017-08-15T00:56:59.051Z,3.77
2017-08-15T00:59:26.652Z,4.10
2017-08-15T01:01:54.209Z,5.37
2017-08-15T01:04:21.776Z,4.50
2017-08-15T01:06:49.353Z,4.27
2017-08-15T01:09:17.314Z,4.50
2017-08-15T01:11:44.886Z,5.37
2017-08-15T01:14:12.466Z,5.70
2017-08-15T01:16:40.826Z,4.43
2017-08-15T01:19:08.389Z,5.20
2017-08-15T01:21:35.962Z,4.13
2017-08-15T01:24:04.307Z,8.40
2017-08-15T01:26:31.894Z,4.43
2017-08-15T01:29:00.230Z,3.73
2017-08-15T01:31:27.810Z,3.80
2017-08-15T01:33:55.401Z,4.20
2017-08-15T01:36:23.327Z,3.47
2017-08-15T01:38:50.925Z,4.10
2017-08-15T01:41:18.501Z,4.17
2017-08-15T01:43:46.073Z,3.53
2017-08-15T01:46:13.622Z,3.43
2017-08-15T01:48:41.202Z,3.07
2017-08-15T01:51:08.765Z,3.10
2017-08-15T01:53:36.339Z,3.17
2017-08-15T01:56:03.919Z,4.30
2017-08-15T01:58:31.497Z,4.00
2017-08-15T02:00:59.083Z,3.90
2017-08-15T02:03:26.991Z,5.07
2017-08-15T02:05:54.566Z,3.33
2017-08-15T02:08:22.191Z,5.10
2017-08-15T02:10:49.802Z,5.60
2017-08-15T02:13:18.165Z,3.63
2017-08-15T02:15:45.748Z,3.80
2017-08-15T02:18:13.329Z,3.50
2017-08-15T02:20:40.919Z,3.33
2017-08-15T02:23:08.495Z,3.60
2017-08-15T02:25:36.054Z,5.13
2017-08-15T02:28:03.614Z,4.00
2017-08-15T02:30:31.573Z,3.60
2017-08-15T02:32:59.158Z,3.70
2017-08-15T02:35:27.487Z,3.97
2017-08-15T02:37:55.096Z,3.43
2017-08-15T02:40:22.689Z,3.70
2017-08-15T02:42:50.283Z,4.17
2017-08-15T02:45:17.860Z,4.13
2017-08-15T02:47:45.490Z,3.37
2017-08-15T02:50:13.061Z,4.30
2017-08-15T02:52:40.647Z,3.17
2017-08-15T02:55:08.977Z,3.20
2017-08-15T02:57:36.611Z,5.23
2017-08-15T03:00:04.194Z,3.90
2017-08-15T03:02:31.772Z,3.63
2017-08-15T03:04:59.348Z,5.13
2017-08-15T03:07:26.906Z,4.80
2017-08-15T03:09:54.474Z,6.83
2017-08-15T03:12:22.805Z,3.53
2017-08-15T03:14:50.404Z,3.37
2017-08-15T03:17:17.986Z,3.40
2017-08-15T03:19:45.562Z,5.07
2017-08-15T03:22:13.141Z,3.70
2017-08-15T03:24:40.728Z,3.83
2017-08-15T03:27:08.308Z,3.47
2017-08-15T03:29:36.645Z,3.40
2017-08-15T03:32:04.248Z,5.37
2017-08-15T03:34:32.578Z,3.63
2017-08-15T03:37:00.160Z,4.97
2017-08-15T03:39:27.739Z,4.53
2017-08-15T03:41:56.088Z,3.50
2017-08-15T03:44:24.432Z,3.57
2017-08-15T03:46:52.044Z,3.83
2017-08-15T03:49:19.612Z,4.03
2017-08-15T03:51:48.228Z,4.60
2017-08-15T03:54:15.849Z,3.27
2017-08-15T03:56:43.593Z,3.67
2017-08-15T03:59:11.187Z,3.10
2017-08-15T04:01:39.540Z,6.57
2017-08-15T04:04:07.109Z,3.40
2017-08-15T04:06:34.683Z,3.27
2017-08-15T04:09:03.052Z,3.27
2017-08-15T04:11:31.382Z,3.83
2017-08-15T04:13:58.959Z,3.20
2017-08-15T04:16:26.548Z,3.23
2017-08-15T04:18:55.217Z,3.50
2017-08-15T04:21:22.790Z,3.03
2017-08-15T04:23:50.365Z,4.47
2017-08-15T04:26:18.712Z,3.67
2017-08-15T04:28:46.313Z,3.23
2017-08-15T04:31:13.925Z,3.80
2017-08-15T04:33:41.513Z,3.83
2017-08-15T04:36:09.090Z,3.03
2017-08-15T04:38:36.668Z,4.37
2017-08-15T04:41:04.251Z,3.47
2017-08-15T04:43:31.817Z,4.80
2017-08-15T04:45:59.678Z,3.33
2017-08-15T04:48:27.230Z,3.77
2017-08-15T04:50:54.798Z,3.67
2017-08-15T04:53:22.381Z,3.90
2017-08-15T04:55:50.752Z,6.13
2017-08-15T04:58:18.339Z,3.77
2017-08-15T05:00:45.898Z,4.77
2017-08-15T05:03:14.261Z,3.67
2017-08-15T05:05:41.850Z,3.40
2017-08-15T05:08:09.436Z,3.77
2017-08-15T05:10:37.016Z,3.43
2017-08-15T05:13:05.079Z,4.70
2017-08-15T05:15:32.661Z,3.60
2017-08-15T05:18:00.240Z,3.60
2017-08-15T05:20:28.584Z,4.00
2017-08-15T05:22:56.162Z,6.03
2017-08-15T05:25:23.762Z,3.40
2017-08-15T05:27:51.339Z,3.90
2017-08-15T05:30:18.915Z,3.33
2017-08-15T05:32:46.504Z,3.57
2017-08-15T05:35:14.426Z,3.50
2017-08-15T05:37:42.009Z,4.40
2017-08-15T05:40:09.636Z,3.73
2017-08-15T05:42:37.282Z,3.13
2017-08-15T05:45:04.871Z,3.53
2017-08-15T05:47:32.441Z,3.40
2017-08-15T05:50:00.020Z,3.70
2017-08-15T05:52:28.365Z,3.60
2017-08-15T05:54:56.014Z,3.17
2017-08-15T05:57:23.897Z,2.80
2017-08-15T05:59:51.471Z,3.87
2017-08-15T06:02:19.048Z,3.00
2017-08-15T06:04:46.636Z,3.57
2017-08-15T06:07:14.204Z,2.97
2017-08-15T06:09:41.788Z,2.80
2017-08-15T06:12:09.375Z,2.93
2017-08-15T06:14:38.007Z,3.30
2017-08-15T06:17:05.577Z,3.30
2017-08-15T06:19:33.138Z,2.93
2017-08-15T06:22:00.731Z,3.10
2017-08-15T06:24:28.309Z,3.20
2017-08-15T06:26:56.652Z,3.73
2017-08-15T06:29:24.256Z,3.03
2017-08-15T06:31:51.846Z,3.23
2017-08-15T06:34:19.412Z,3.17
2017-08-15T06:36:47.007Z,3.03
2017-08-15T06:39:14.580Z,3.00
2017-08-15T06:41:43.240Z,2.90
2017-08-15T06:44:10.816Z,3.93
2017-08-15T06:46:38.373Z,3.33
2017-08-15T06:49:05.941Z,3.60
2017-08-15T06:51:34.311Z,2.87
2017-08-15T06:54:02.657Z,2.87
2017-08-15T06:56:30.222Z,2.70
2017-08-15T06:58:57.898Z,3.10
2017-08-15T07:01:25.510Z,2.70
2017-08-15T07:03:53.121Z,6.10
2017-08-15T07:06:20.691Z,2.83
2017-08-15T07:08:49.347Z,2.60
2017-08-15T07:11:16.907Z,2.30
2017-08-15T07:13:44.486Z,2.90
2017-08-15T07:16:12.065Z,2.67
2017-08-15T07:18:40.398Z,2.70
2017-08-15T07:21:07.964Z,3.43
2017-08-15T07:23:35.525Z,2.97
2017-08-15T07:26:03.104Z,2.20
2017-08-15T07:28:31.431Z,2.40
2017-08-15T07:30:59.316Z,2.77
2017-08-15T07:33:26.903Z,2.20
2017-08-15T07:35:54.532Z,2.57
2017-08-15T07:38:22.128Z,2.50
2017-08-15T07:40:50.488Z,2.30
2017-08-15T07:43:18.082Z,2.67
2017-08-15T07:45:45.662Z,2.50
2017-08-15T07:48:13.252Z,2.80
2017-08-15T07:50:40.833Z,2.10
2017-08-15T07:53:08.772Z,2.73
2017-08-15T07:55:36.334Z,2.40
2017-08-15T07:58:03.914Z,3.10
2017-08-15T08:00:31.516Z,2.40
2017-08-15T08:02:59.075Z,3.70
2017-08-15T08:05:26.638Z,2.50
2017-08-15T08:07:54.215Z,5.50
2017-08-15T08:10:21.813Z,2.40
2017-08-15T08:12:49.402Z,3.30
2017-08-15T08:15:17.319Z,2.60
2017-08-15T08:17:44.885Z,2.40
2017-08-15T08:20:12.462Z,3.10
2017-08-15T08:22:40.819Z,2.50
2017-08-15T08:25:08.381Z,2.30
2017-08-15T08:27:35.999Z,2.67
2017-08-15T08:30:03.559Z,3.70
2017-08-15T08:32:31.148Z,2.87
2017-08-15T08:34:58.767Z,2.17
2017-08-15T08:37:26.345Z,2.53
2017-08-15T08:39:53.939Z,2.73
2017-08-15T08:42:21.536Z,2.40
2017-08-15T08:44:49.104Z,2.73
2017-08-15T08:47:16.993Z,2.47
2017-08-15T08:49:44.551Z,1.73
2017-08-15T08:52:12.219Z,2.80
2017-08-15T08:54:39.824Z,2.60
2017-08-15T08:57:08.186Z,2.20
2017-08-15T08:59:36.538Z,1.80
2017-08-15T09:02:04.101Z,3.93
2017-08-15T09:04:31.723Z,2.67
2017-08-15T09:06:59.301Z,2.50
2017-08-15T09:09:27.196Z,2.43
2017-08-15T09:11:54.789Z,2.10
2017-08-15T09:14:23.120Z,4.50
2017-08-15T09:16:50.719Z,2.37
2017-08-15T09:19:19.066Z,6.23
2017-08-15T09:21:46.669Z,2.50
2017-08-15T09:24:14.252Z,2.50
2017-08-15T09:26:41.827Z,2.30
2017-08-15T09:29:09.386Z,2.17
2017-08-15T09:31:37.274Z,2.77
2017-08-15T09:34:04.856Z,2.37
2017-08-15T09:36:33.211Z,2.17
2017-08-15T09:39:00.825Z,2.50
2017-08-15T09:41:28.415Z,2.40
2017-08-15T09:43:56.006Z,4.27
2017-08-15T09:46:23.587Z,2.20
2017-08-15T09:48:51.219Z,1.97
2017-08-15T09:51:18.803Z,2.13
2017-08-15T09:53:46.410Z,1.83
2017-08-15T09:56:13.984Z,1.80
2017-08-15T09:58:47.153Z,2.03
2017-08-15T10:01:14.732Z,2.87
2017-08-15T10:03:42.595Z,1.93
2017-08-15T10:06:10.171Z,2.20
2017-08-15T10:08:37.743Z,1.80
2017-08-15T10:11:06.094Z,1.83
2017-08-15T10:13:33.668Z,2.80
2017-08-15T10:16:01.288Z,2.50
2017-08-15T10:18:28.874Z,2.40
2017-08-15T10:20:56.449Z,3.73
2017-08-15T10:23:23.997Z,2.40
2017-08-15T10:25:51.986Z,1.80
2017-08-15T10:28:20.339Z,2.10
2017-08-15T10:30:47.927Z,2.23
2017-08-15T10:33:16.291Z,2.40
2017-08-15T10:35:43.841Z,2.10
2017-08-15T10:38:11.477Z,2.60
2017-08-15T10:40:39.047Z,2.13
2017-08-15T10:43:06.973Z,2.57
2017-08-15T10:45:34.551Z,3.23
2017-08-15T10:48:02.151Z,2.30
2017-08-15T10:50:29.743Z,2.30
2017-08-15T10:52:57.342Z,2.77
2017-08-15T10:55:24.947Z,3.13
2017-08-15T10:57:53.594Z,2.17
2017-08-15T11:00:21.178Z,2.53
2017-08-15T11:02:48.765Z,2.70
2017-08-15T11:05:16.365Z,1.90
2017-08-15T11:07:44.061Z,2.20
2017-08-15T11:10:11.642Z,2.00
2017-08-15T11:12:39.217Z,2.23
2017-08-15T11:15:06.797Z,2.60
2017-08-15T11:17:34.401Z,2.47
2017-08-15T11:20:02.749Z,2.20
2017-08-15T11:22:30.329Z,1.90
2017-08-15T11:24:58.675Z,2.20
2017-08-15T11:27:26.249Z,2.20
2017-08-15T11:29:54.223Z,2.47
2017-08-15T11:32:21.788Z,1.73
2017-08-15T11:34:49.375Z,1.97
2017-08-15T11:37:16.953Z,2.33
2017-08-15T11:39:44.533Z,2.23
2017-08-15T11:42:12.115Z,1.50
2017-08-15T11:44:39.717Z,2.30
2017-08-15T11:47:07.586Z,4.53
2017-08-15T11:49:35.171Z,2.20
2017-08-15T11:52:02.745Z,3.50
2017-08-15T11:54:30.364Z,2.40
2017-08-15T11:56:58.024Z,2.70
2017-08-15T11:59:25.599Z,2.60
2017-08-15T12:01:53.157Z,2.10
2017-08-15T12:04:20.770Z,4.20
2017-08-15T12:06:48.440Z,3.13
2017-08-15T12:09:16.807Z,2.60
2017-08-15T12:11:44.379Z,2.40
2017-08-15T12:14:12.756Z,2.40
2017-08-15T12:16:41.152Z,3.30
2017-08-15T12:19:08.738Z,2.70
2017-08-15T12:21:36.333Z,2.50
2017-08-15T12:24:03.929Z,2.47
2017-08-15T12:26:31.510Z,2.20
2017-08-15T12:28:59.162Z,2.43
2017-08-15T12:31:26.774Z,2.03
2017-08-15T12:33:54.359Z,2.13
2017-08-15T12:36:23.011Z,2.70
2017-08-15T12:38:50.605Z,2.17
2017-08-15T12:41:18.933Z,2.70
2017-08-15T12:43:46.529Z,2.07
2017-08-15T12:46:14.879Z,2.10
2017-08-15T12:48:42.454Z,2.30
2017-08-15T12:51:10.034Z,3.33
2017-08-15T12:53:37.635Z,2.83
2017-08-15T12:56:05.208Z,2.80
2017-08-15T12:58:32.776Z,3.17
2017-08-15T13:01:00.333Z,3.07
2017-08-15T13:03:28.298Z,2.67
2017-08-15T13:05:55.877Z,2.23
2017-08-15T13:08:23.466Z,2.40
2017-08-15T13:10:51.163Z,2.03
2017-08-15T13:13:18.740Z,2.67
2017-08-15T13:15:46.341Z,2.17
2017-08-15T13:18:14.682Z,2.47
2017-08-15T13:20:42.291Z,2.60
2017-08-15T13:23:09.860Z,3.60
2017-08-15T13:25:37.450Z,4.80
2017-08-15T13:28:05.037Z,3.10
2017-08-15T13:30:32.915Z,2.53
2017-08-15T13:33:01.982Z,2.73
2017-08-15T13:35:29.601Z,3.13
2017-08-15T13:37:57.185Z,2.60
2017-08-15T13:40:24.750Z,2.30
2017-08-15T13:42:52.336Z,3.10
2017-08-15T13:45:19.919Z,2.50
2017-08-15T13:47:47.517Z,2.83
2017-08-15T13:50:15.086Z,2.03
2017-08-15T13:52:42.956Z,3.00
2017-08-15T13:55:10.530Z,2.43
2017-08-15T13:57:38.104Z,2.07
2017-08-15T14:00:06.438Z,2.47
2017-08-15T14:02:33.999Z,2.50
2017-08-15T14:05:01.577Z,2.50
2017-08-15T14:07:29.164Z,2.17
2017-08-15T14:09:57.824Z,2.43
2017-08-15T14:12:26.177Z,2.80
2017-08-15T14:14:53.770Z,2.57
2017-08-15T14:17:21.350Z,2.70
2017-08-15T14:19:48.913Z,2.70
2017-08-15T14:22:16.507Z,2.60
2017-08-15T14:24:44.085Z,3.00
2017-08-15T14:27:11.682Z,2.63
2017-08-15T14:29:39.265Z,2.60
2017-08-15T14:32:07.110Z,2.57
2017-08-15T14:34:34.682Z,2.50
2017-08-15T14:37:02.240Z,1.93
2017-08-15T14:39:29.842Z,3.00
2017-08-15T14:41:57.408Z,2.53
2017-08-15T14:44:24.993Z,2.70
2017-08-15T14:46:52.562Z,2.47
2017-08-15T14:49:20.139Z,2.40
2017-08-15T14:51:47.729Z,5.63
2017-08-15T14:54:15.605Z,2.23
2017-08-15T14:56:43.179Z,2.63
2017-08-15T14:59:10.758Z,2.63
2017-08-15T15:01:38.353Z,3.87
2017-08-15T15:04:05.918Z,3.93
2017-08-15T15:06:33.507Z,2.30
2017-08-15T15:09:01.847Z,2.63
2017-08-15T15:11:29.417Z,2.67
2017-08-15T15:13:56.999Z,4.60
2017-08-15T15:16:24.585Z,2.60
2017-08-15T15:18:52.187Z,2.40
2017-08-15T15:21:19.756Z,2.50
2017-08-15T15:23:47.331Z,2.10
2017-08-15T15:26:14.914Z,2.30
2017-08-15T15:28:42.525Z,2.53
2017-08-15T15:31:10.084Z,3.60
2017-08-15T15:33:38.153Z,2.63
2017-08-15T15:36:05.707Z,2.67
2017-08-15T15:38:33.273Z,3.13
2017-08-15T15:41:00.894Z,4.20
2017-08-15T15:43:30.127Z,2.67
2017-08-15T15:45:57.736Z,2.80
2017-08-15T15:48:25.299Z,2.40
2017-08-15T15:50:52.868Z,2.50
2017-08-15T15:53:20.473Z,2.13
2017-08-15T15:55:48.343Z,2.30
2017-08-15T15:58:15.920Z,2.40
2017-08-15T16:00:43.499Z,2.73
2017-08-15T16:03:11.091Z,2.40
2017-08-15T16:05:38.662Z,4.00
2017-08-15T16:08:06.265Z,2.20
2017-08-15T16:10:34.686Z,2.50
2017-08-15T16:13:02.385Z,3.47
2017-08-15T16:15:30.022Z,2.87
2017-08-15T16:17:57.908Z,2.63
2017-08-15T16:20:26.279Z,3.00
2017-08-15T16:22:53.860Z,4.13
2017-08-15T16:25:21.444Z,2.80
2017-08-15T16:27:49.796Z,3.30
2017-08-15T16:30:17.385Z,3.30
2017-08-15T16:32:44.989Z,2.63
2017-08-15T16:35:12.866Z,3.10
2017-08-15T16:37:40.459Z,2.90
2017-08-15T16:40:08.065Z,2.87
2017-08-15T16:42:35.659Z,3.80
2017-08-15T16:45:03.238Z,2.80
2017-08-15T16:47:30.834Z,3.80
2017-08-15T16:49:58.424Z,4.67
2017-08-15T16:52:26.008Z,2.50
2017-08-15T16:54:54.343Z,2.80
2017-08-15T16:57:21.924Z,3.57
2017-08-15T16:59:49.495Z,2.90
2017-08-15T17:02:17.455Z,1.93
2017-08-15T17:04:45.813Z,2.00
2017-08-15T17:07:13.386Z,2.40
2017-08-15T17:09:40.977Z,3.87
2017-08-15T17:12:09.334Z,5.10
2017-08-15T17:14:36.917Z,2.93
2017-08-15T17:17:04.496Z,2.70
2017-08-15T17:19:32.082Z,2.33
2017-08-15T17:21:59.669Z,3.13
2017-08-15T17:24:27.638Z,3.60
2017-08-15T17:26:55.221Z,3.07
2017-08-15T17:29:22.815Z,2.70
2017-08-15T17:31:50.418Z,3.37
2017-08-15T17:34:17.987Z,2.83
2017-08-15T17:36:46.363Z,2.63
2017-08-15T17:39:13.943Z,3.47
2017-08-15T17:41:41.535Z,4.67
2017-08-15T17:44:09.109Z,4.70
2017-08-15T17:46:36.717Z,5.97
2017-08-15T17:49:04.312Z,5.83
2017-08-15T17:51:32.200Z,10.17
2017-08-15T17:53:59.778Z,8.00
2017-08-15T17:56:28.123Z,16.63
2017-08-15T17:58:55.724Z,11.70
2017-08-15T18:01:23.319Z,7.20
2017-08-15T18:03:50.929Z,6.50
2017-08-15T18:06:18.513Z,9.47
2017-08-15T18:08:46.855Z,11.43
2017-08-15T18:11:14.450Z,4.53
2017-08-15T18:13:43.107Z,3.93
2017-08-15T18:16:10.704Z,5.80
2017-08-15T18:18:38.274Z,6.50
2017-08-15T18:21:05.877Z,2.87
2017-08-15T18:23:33.459Z,7.10
2017-08-15T18:26:01.838Z,8.33
2017-08-15T18:28:30.190Z,6.57
2017-08-15T18:30:58.100Z,4.40
2017-08-15T18:33:25.688Z,4.30
2017-08-15T18:35:53.257Z,4.97
2017-08-15T18:38:20.853Z,5.87
2017-08-15T18:40:49.188Z,4.43
2017-08-15T18:43:16.750Z,4.10
2017-08-15T18:45:44.326Z,4.47
2017-08-15T18:48:11.926Z,6.97
2017-08-15T18:50:39.503Z,6.63
2017-08-15T18:53:07.089Z,7.90
2017-08-15T18:55:34.649Z,5.40
2017-08-15T18:58:02.238Z,5.60
2017-08-15T19:00:29.856Z,5.63
2017-08-15T19:02:57.733Z,6.93
2017-08-15T19:05:25.294Z,4.73
2017-08-15T19:07:52.890Z,6.83
2017-08-15T19:10:21.254Z,5.97
2017-08-15T19:12:48.835Z,5.10
2017-08-15T19:15:17.201Z,6.70
2017-08-15T19:17:45.551Z,4.90
2017-08-15T19:20:13.148Z,8.70
2017-08-15T19:22:41.512Z,4.33
2017-08-15T19:25:09.363Z,5.50
2017-08-15T19:27:36.922Z,7.50
2017-08-15T19:30:04.496Z,9.63
2017-08-15T19:32:32.080Z,8.70
2017-08-15T19:34:59.676Z,5.87
2017-08-15T19:37:27.248Z,9.37
2017-08-15T19:39:54.831Z,4.50
2017-08-15T19:42:22.467Z,6.67
2017-08-15T19:44:50.045Z,9.00
2017-08-15T19:47:18.023Z,5.57
2017-08-15T19:49:46.368Z,6.63
2017-08-15T19:52:13.980Z,5.23
2017-08-15T19:54:41.606Z,6.47
2017-08-15T19:57:09.190Z,5.73
2017-08-15T19:59:37.551Z,7.80
2017-08-15T20:02:05.150Z,5.47
2017-08-15T20:04:32.767Z,5.70
2017-08-15T20:07:01.117Z,7.47
2017-08-15T20:09:28.707Z,8.10
2017-08-15T20:11:56.310Z,16.43
2017-08-15T20:14:24.200Z,6.03
2017-08-15T20:16:51.777Z,9.77
2017-08-15T20:19:19.338Z,4.70
2017-08-15T20:21:46.917Z,5.20
2017-08-15T20:24:15.261Z,5.70
2017-08-15T20:26:42.861Z,4.37
2017-08-15T20:29:11.227Z,6.47
2017-08-15T20:31:39.617Z,6.67
2017-08-15T20:34:07.969Z,8.13
2017-08-15T20:36:35.584Z,6.30
2017-08-15T20:39:03.147Z,8.20
2017-08-15T20:41:31.030Z,7.30
2017-08-15T20:43:58.691Z,3.30
2017-08-15T20:46:26.264Z,8.20
2017-08-15T20:48:53.875Z,5.43
2017-08-15T20:51:21.455Z,8.77
2017-08-15T20:53:49.068Z,7.33
2017-08-15T20:56:16.646Z,4.90
2017-08-15T20:58:45.008Z,6.43
2017-08-15T21:01:13.365Z,5.57
2017-08-15T21:03:41.245Z,4.83
2017-08-15T21:06:08.819Z,4.83
2017-08-15T21:08:37.160Z,6.63
2017-08-15T21:11:04.742Z,9.37
2017-08-15T21:13:32.348Z,9.00
2017-08-15T21:15:59.980Z,11.00
2017-08-15T21:18:28.335Z,7.63
2017-08-15T21:20:55.942Z,5.23
2017-08-15T21:23:23.519Z,5.37
2017-08-15T21:25:51.402Z,7.00
2017-08-15T21:28:19.003Z,5.23
2017-08-15T21:30:47.420Z,11.53
2017-08-15T21:33:15.034Z,5.87
2017-08-15T21:35:43.379Z,8.40
2017-08-15T21:38:10.989Z,8.10
2017-08-15T21:40:38.557Z,5.20
2017-08-15T21:43:06.261Z,3.90
2017-08-15T21:45:33.823Z,4.27
2017-08-15T21:48:01.407Z,4.57
2017-08-15T21:50:29.763Z,6.67
2017-08-15T21:52:57.328Z,4.63
2017-08-15T21:55:24.906Z,5.00
2017-08-15T21:57:53.236Z,8.33
2017-08-15T22:00:20.840Z,5.40
2017-08-15T22:02:49.186Z,6.70
2017-08-15T22:05:16.767Z,5.20
2017-08-15T22:07:45.113Z,6.43
2017-08-15T22:10:12.682Z,6.20
2017-08-15T22:12:40.275Z,5.20
2017-08-15T22:15:08.609Z,5.80
2017-08-15T22:17:36.503Z,9.93
2017-08-15T22:20:04.073Z,11.30
2017-08-15T22:22:32.436Z,7.57
2017-08-15T22:25:00.038Z,4.37
2017-08-15T22:27:27.617Z,6.60
2017-08-15T22:29:55.196Z,5.53
2017-08-15T22:32:22.803Z,5.70
2017-08-15T22:34:56.000Z,10.70
2017-08-15T22:37:27.031Z,6.73
2017-08-15T22:40:01.297Z,7.43
2017-08-15T22:42:32.086Z,8.40
2017-08-15T22:45:03.092Z,6.90
2017-08-15T22:47:37.085Z,7.70
2017-08-15T22:50:05.780Z,8.07
2017-08-15T22:52:39.111Z,8.67
2017-08-15T22:55:11.418Z,7.97
2017-08-15T22:57:41.700Z,8.20
2017-08-15T23:00:11.658Z,8.33
2017-08-15T23:02:39.379Z,7.47
2017-08-15T23:05:09.803Z,8.27
2017-08-15T23:07:41.567Z,8.63
2017-08-15T23:10:15.322Z,8.30
2017-08-15T23:12:49.385Z,8.40
2017-08-15T23:15:20.599Z,11.10
2017-08-15T23:17:49.407Z,7.90
2017-08-15T23:20:20.949Z,7.20
2017-08-15T23:22:50.052Z,8.60
2017-08-15T23:25:21.807Z,8.17
2017-08-15T23:27:51.722Z,12.70
2017-08-15T23:30:20.917Z,14.87
2017-08-15T23:32:53.459Z,12.13
2017-08-15T23:35:22.655Z,9.37
2017-08-15T23:37:52.541Z,9.13
2017-08-15T23:40:23.846Z,9.37
2017-08-15T23:42:53.658Z,14.77
2017-08-15T23:45:23.648Z,12.77
2017-08-15T23:47:55.535Z,10.23
2017-08-15T23:50:25.958Z,12.60
2017-08-15T23:52:56.532Z,8.17
2017-08-15T23:55:29.629Z,13.30
2017-08-15T23:57:58.190Z,8.50
